Time;durP1;ratioP1;P1;durP2;ratioP2;P2;SDS_P1;SDS_P2;PMS_P1;PMS_P2;Temp;Humidity;BMP_temperature;BMP_pressure;BME280_temperature;BME280_humidity;BME280_pressure;Samples;Min_cycle;Max_cycle;Signal;HPM_P1;HPM_P2
2022/02/04 00:21:24;;;;;;;4.37;3.58;;;;;;;;;;1891231;75;21079;-47
2022/02/04 00:23:39;;;;;;;5.70;3.02;;;;;;;;;;1884837;76;21133;-48
2022/02/04 00:26:22;;;;;;;3.83;3.12;;;;;;;;;;1888173;76;21020;-48
2022/02/04 00:29:09;;;;;;;4.25;3.10;;;;;;;;;;1887518;76;21024;-49
2022/02/04 00:31:37;;;;;;;3.92;3.08;;;;;;;;;;1885461;75;21576;-47
2022/02/04 00:34:07;;;;;;;4.67;3.10;;;;;;;;;;1887382;75;21111;-47
2022/02/04 00:36:44;;;;;;;4.37;3.05;;;;;;;;;;1887542;76;21651;-47
2022/02/04 00:39:11;;;;;;;3.70;2.92;;;;;;;;;;1886713;75;21501;-46
2022/02/04 00:41:39;;;;;;;3.87;2.92;;;;;;;;;;1887560;76;21056;-47
2022/02/04 00:44:15;;;;;;;3.72;2.60;;;;;;;;;;1888010;75;21569;-48
2022/02/04 00:47:25;;;;;;;2.83;2.40;;;;;;;;;;1886354;75;21475;-47
2022/02/04 00:49:19;;;;;;;3.15;2.42;;;;;;;;;;1871916;75;21012;-47
2022/02/04 00:51:59;;;;;;;2.80;2.50;;;;;;;;;;1885969;75;21098;-48
2022/02/04 00:57:08;;;;;;;1.90;1.65;;;;;;;;;;1888135;76;21489;-47
2022/02/04 01:27:17;;;;;;;2.77;2.10;;;;;;;;;;1908367;75;21039;-48
2022/02/04 01:30:01;;;;;;;2.67;2.33;;;;;;;;;;1908335;75;21038;-47
2022/02/04 01:32:22;;;;;;;3.40;2.55;;;;;;;;;;1906362;75;21108;-48
2022/02/04 01:34:51;;;;;;;2.25;2.05;;;;;;;;;;1908544;75;21035;-47
2022/02/04 01:37:20;;;;;;;2.98;2.52;;;;;;;;;;1908407;75;21104;-48
2022/02/04 01:39:49;;;;;;;3.17;2.40;;;;;;;;;;1908366;75;21019;-48
2022/02/04 01:42:18;;;;;;;2.92;2.62;;;;;;;;;;1908431;75;21026;-46
2022/02/04 01:44:47;;;;;;;4.72;2.47;;;;;;;;;;1908398;75;21105;-47
2022/02/04 01:47:16;;;;;;;3.02;2.37;;;;;;;;;;1908458;75;21003;-47
2022/02/04 01:49:44;;;;;;;2.40;2.20;;;;;;;;;;1908440;75;20999;-48
2022/02/04 01:52:13;;;;;;;4.15;3.12;;;;;;;;;;1908491;75;21079;-47
2022/02/04 01:54:42;;;;;;;3.20;2.72;;;;;;;;;;1908488;75;21047;-48
2022/02/04 01:57:11;;;;;;;4.70;3.33;;;;;;;;;;1908477;75;21035;-48
2022/02/04 01:59:40;;;;;;;3.08;2.55;;;;;;;;;;1908606;75;21081;-48
2022/02/04 02:02:08;;;;;;;4.28;2.98;;;;;;;;;;1908549;75;21109;-48
2022/02/04 02:04:37;;;;;;;6.12;2.67;;;;;;;;;;1908414;75;21124;-47
2022/02/04 02:07:11;;;;;;;2.92;2.62;;;;;;;;;;1908458;75;21039;-47
2022/02/04 02:09:54;;;;;;;3.35;2.75;;;;;;;;;;1907770;75;21176;-48
2022/02/04 02:12:10;;;;;;;3.22;2.52;;;;;;;;;;1904537;75;21026;-47
2022/02/04 02:14:39;;;;;;;3.95;2.98;;;;;;;;;;1908405;74;21035;-47
2022/02/04 02:39:24;;;;;;;6.25;4.87;;;;;;;;;;1829088;75;21109;-48
2022/02/04 02:44:31;;;;;;;5.35;3.90;;;;;;;;;;1908450;75;21050;-47
2022/02/04 02:57:51;;;;;;;6.35;4.58;;;;;;;;;;1908310;75;21042;-48
2022/02/04 03:00:07;;;;;;;5.53;4.83;;;;;;;;;;1903389;75;21481;-48
2022/02/04 03:02:28;;;;;;;7.65;4.53;;;;;;;;;;1906617;75;21555;-47
2022/02/04 03:04:57;;;;;;;7.35;5.25;;;;;;;;;;1908324;75;21035;-47
2022/02/04 03:07:26;;;;;;;6.03;4.47;;;;;;;;;;1908301;75;21077;-49
2022/02/04 03:09:55;;;;;;;6.67;5.17;;;;;;;;;;1908333;75;21035;-48
2022/02/04 03:12:24;;;;;;;8.53;5.92;;;;;;;;;;1908463;75;21067;-47
2022/02/04 03:14:53;;;;;;;9.03;5.30;;;;;;;;;;1908473;75;21039;-47
2022/02/04 03:17:22;;;;;;;6.90;4.87;;;;;;;;;;1908406;75;21019;-48
2022/02/04 03:19:56;;;;;;;6.65;4.85;;;;;;;;;;1908688;75;21043;-48
2022/02/04 03:22:21;;;;;;;5.92;4.35;;;;;;;;;;1905632;75;21458;-47
2022/02/04 03:24:57;;;;;;;4.72;3.90;;;;;;;;;;1905581;75;21118;-48
2022/02/04 03:27:20;;;;;;;5.62;4.67;;;;;;;;;;1904311;75;21533;-48
2022/02/04 03:30:17;;;;;;;11.25;7.37;;;;;;;;;;1905596;75;21075;-47
2022/02/04 03:32:38;;;;;;;7.25;5.25;;;;;;;;;;1901883;75;21082;-47
2022/02/04 03:35:05;;;;;;;6.12;4.50;;;;;;;;;;1905527;75;21552;-46
2022/02/04 03:37:34;;;;;;;5.55;4.08;;;;;;;;;;1905767;75;21050;-46
2022/02/04 03:40:02;;;;;;;6.03;3.98;;;;;;;;;;1905685;75;21023;-47
2022/02/04 03:42:31;;;;;;;4.67;3.87;;;;;;;;;;1905588;75;21104;-47
2022/02/04 03:45:01;;;;;;;4.83;3.80;;;;;;;;;;1905641;75;21051;-47
2022/02/04 03:47:29;;;;;;;6.53;4.75;;;;;;;;;;1905558;75;21100;-46
2022/02/04 03:49:58;;;;;;;4.72;4.10;;;;;;;;;;1905512;75;21011;-48
2022/02/04 03:52:27;;;;;;;9.53;5.45;;;;;;;;;;1905555;75;21011;-46
2022/02/04 03:54:56;;;;;;;4.42;3.42;;;;;;;;;;1905658;75;21039;-47
2022/02/04 03:57:25;;;;;;;5.65;4.05;;;;;;;;;;1905523;75;21086;-47
2022/02/04 03:59:53;;;;;;;6.92;4.55;;;;;;;;;;1905534;75;21110;-46
2022/02/04 04:02:22;;;;;;;9.48;4.80;;;;;;;;;;1905654;75;21031;-47
2022/02/04 04:04:51;;;;;;;6.95;5.00;;;;;;;;;;1905660;75;21105;-48
2022/02/04 04:07:20;;;;;;;7.30;4.17;;;;;;;;;;1905602;75;21026;-47
2022/02/04 04:10:01;;;;;;;7.47;5.35;;;;;;;;;;1905640;75;21011;-46
2022/02/04 04:12:19;;;;;;;6.95;4.92;;;;;;;;;;1901373;75;21457;-47
2022/02/04 04:14:52;;;;;;;14.05;5.00;;;;;;;;;;1905697;75;21027;-47
2022/02/04 04:17:18;;;;;;;5.75;4.10;;;;;;;;;;1905259;75;21520;-47
2022/02/04 04:19:47;;;;;;;9.68;6.17;;;;;;;;;;1905553;75;21026;-47
2022/02/04 04:22:16;;;;;;;10.00;5.55;;;;;;;;;;1905528;75;21129;-47
2022/02/04 04:24:44;;;;;;;7.60;5.42;;;;;;;;;;1905476;75;21082;-47
2022/02/04 04:27:13;;;;;;;10.70;6.20;;;;;;;;;;1905526;75;21015;-48
2022/02/04 04:29:42;;;;;;;8.03;4.80;;;;;;;;;;1905527;75;21012;-47
2022/02/04 04:32:11;;;;;;;9.08;6.20;;;;;;;;;;1905538;75;21054;-47
2022/02/04 04:34:40;;;;;;;7.25;5.70;;;;;;;;;;1905673;75;21039;-46
2022/02/04 04:37:08;;;;;;;9.35;6.12;;;;;;;;;;1905591;75;21149;-47
2022/02/04 04:39:50;;;;;;;9.68;7.03;;;;;;;;;;1905624;75;21035;-46
2022/02/04 04:42:29;;;;;;;7.97;6.28;;;;;;;;;;1902839;75;21481;-46
2022/02/04 05:26:55;;;;;;;16.02;8.53;;;;;;;;;;1896137;76;21044;-47
2022/02/04 05:29:08;;;;;;;12.93;7.60;;;;;;;;;;1892501;75;21105;-47
2022/02/04 05:31:31;;;;;;;14.07;8.65;;;;;;;;;;1894812;75;21485;-48
2022/02/04 05:34:00;;;;;;;17.57;8.73;;;;;;;;;;1896119;76;21094;-48
2022/02/04 05:36:29;;;;;;;17.17;10.45;;;;;;;;;;1896005;76;21039;-47
2022/02/04 05:38:58;;;;;;;16.50;8.50;;;;;;;;;;1896164;75;21024;-47
2022/02/04 05:41:31;;;;;;;17.20;10.15;;;;;;;;;;1896250;76;21090;-47
2022/02/04 05:44:00;;;;;;;16.05;9.08;;;;;;;;;;1895871;75;21496;-47
2022/02/04 05:46:32;;;;;;;15.78;9.18;;;;;;;;;;1896088;76;21055;-49
2022/02/04 05:48:59;;;;;;;17.12;10.53;;;;;;;;;;1895892;75;21547;-49
2022/02/04 05:51:37;;;;;;;24.47;13.55;;;;;;;;;;1896004;76;21055;-48
2022/02/04 05:54:16;;;;;;;17.42;10.20;;;;;;;;;;1895018;75;21043;-49
2022/02/04 06:23:13;;;;;;;19.87;11.05;;;;;;;;;;1902085;75;21063;-48
2022/02/04 06:25:43;;;;;;;20.20;10.60;;;;;;;;;;1905429;75;21109;-48
2022/02/04 06:28:13;;;;;;;26.17;10.43;;;;;;;;;;1905594;75;21101;-47
2022/02/04 06:30:42;;;;;;;25.65;13.55;;;;;;;;;;1905422;75;20995;-47
2022/02/04 06:33:11;;;;;;;24.18;12.75;;;;;;;;;;1905614;75;21027;-50
2022/02/04 06:35:41;;;;;;;25.23;12.95;;;;;;;;;;1905554;75;21011;-47
2022/02/04 06:38:10;;;;;;;29.00;13.95;;;;;;;;;;1904895;75;21089;-47
2022/02/04 06:40:38;;;;;;;29.07;12.30;;;;;;;;;;1905404;75;21031;-48
2022/02/04 06:43:09;;;;;;;32.63;13.83;;;;;;;;;;1905594;75;21093;-48
2022/02/04 06:45:38;;;;;;;27.48;11.60;;;;;;;;;;1905517;75;21422;-48
2022/02/04 06:48:07;;;;;;;34.33;15.58;;;;;;;;;;1905519;75;21011;-47
2022/02/04 06:50:35;;;;;;;22.48;11.63;;;;;;;;;;1905452;75;21023;-48
2022/02/04 06:53:05;;;;;;;30.45;13.90;;;;;;;;;;1905695;75;21105;-48
2022/02/04 06:55:33;;;;;;;29.48;13.60;;;;;;;;;;1905667;75;21120;-47
2022/02/04 06:58:02;;;;;;;31.30;14.18;;;;;;;;;;1905511;75;21011;-48
2022/02/04 07:00:31;;;;;;;34.88;15.63;;;;;;;;;;1905505;75;21035;-47
2022/02/04 07:03:00;;;;;;;14.00;9.25;;;;;;;;;;1905548;75;21039;-48
2022/02/04 07:05:37;;;;;;;38.45;16.02;;;;;;;;;;1905697;75;21109;-48
2022/02/04 07:08:08;;;;;;;24.10;11.78;;;;;;;;;;1904259;75;21505;-48
2022/02/04 07:10:52;;;;;;;13.83;8.60;;;;;;;;;;1904673;75;21485;-48
2022/02/04 07:13:21;;;;;;;31.85;14.33;;;;;;;;;;1901520;75;21610;-48
2022/02/04 07:15:52;;;;;;;35.25;16.93;;;;;;;;;;1904547;75;21144;-48
2022/02/04 07:20:45;;;;;;;24.82;11.80;;;;;;;;;;1838453;75;21184;-48
2022/02/04 07:23:14;;;;;;;33.88;16.82;;;;;;;;;;1901296;75;21059;-50
2022/02/04 07:25:43;;;;;;;39.80;15.25;;;;;;;;;;1896413;76;21081;-47
2022/02/04 07:28:12;;;;;;;26.12;11.45;;;;;;;;;;1896374;76;21113;-48
2022/02/04 07:30:42;;;;;;;33.18;16.00;;;;;;;;;;1896223;76;21098;-48
2022/02/04 07:38:48;;;;;;;24.77;14.25;;;;;;;;;;1896234;76;21044;-48
2022/02/04 07:41:05;;;;;;;45.90;20.88;;;;;;;;;;1894275;75;21101;-48
2022/02/04 07:43:34;;;;;;;33.02;15.93;;;;;;;;;;1896390;76;21011;-48
2022/02/04 07:46:03;;;;;;;40.17;18.48;;;;;;;;;;1896271;76;21012;-48
2022/02/04 07:48:31;;;;;;;45.55;20.75;;;;;;;;;;1896204;76;21101;-48
2022/02/04 07:51:00;;;;;;;21.07;10.85;;;;;;;;;;1896025;76;21028;-47
2022/02/04 07:53:34;;;;;;;30.37;14.13;;;;;;;;;;1896112;76;21130;-48
2022/02/04 07:55:59;;;;;;;34.03;15.40;;;;;;;;;;1893138;74;21711;-48
2022/02/04 07:58:28;;;;;;;33.00;14.23;;;;;;;;;;1895536;76;21055;-48
2022/02/04 09:46:41;;;;;;;37.63;15.55;;;3.90;88.00;;;;;;1959043;73;26240;-47
2022/02/04 09:49:24;;;;;;;21.05;12.95;;;3.80;88.00;;;;;;1918348;73;21051;-54
2022/02/04 10:04:25;;;;;;;28.85;15.35;;;3.80;88.70;;;;;;1917002;74;21038;-54
2022/02/04 10:09:18;;;;;;;31.00;15.98;;;3.90;87.80;;;;;;1918290;74;21038;-54
2022/02/04 10:12:34;;;;;;;27.87;13.55;;;3.90;88.20;;;;;;1915477;74;21097;-53
2022/02/04 10:17:08;;;;;;;27.48;14.47;;;3.90;87.80;;;;;;1918410;74;21031;-54
2022/02/04 10:22:08;;;;;;;22.35;13.40;;;4.00;87.90;;;;;;1918286;74;21426;-54
2022/02/04 10:24:37;;;;;;;47.93;15.93;;;4.00;88.10;;;;;;1918347;75;21026;-53
2022/02/04 10:27:20;;;;;;;28.32;14.70;;;4.00;88.00;;;;;;1918221;75;21003;-53
2022/02/04 10:29:54;;;;;;;23.98;12.58;;;4.10;88.00;;;;;;1917112;74;21100;-54
2022/02/04 10:32:26;;;;;;;25.68;13.53;;;4.10;87.80;;;;;;1918516;75;20988;-53
2022/02/04 10:35:04;;;;;;;30.57;14.93;;;4.10;87.60;;;;;;1918543;75;21034;-53
2022/02/04 10:37:36;;;;;;;27.90;15.43;;;4.10;87.60;;;;;;1918134;73;21027;-54
2022/02/04 10:42:56;;;;;;;25.23;12.80;;;4.20;88.20;;;;;;1916333;74;21109;-55
2022/02/04 10:45:25;;;;;;;26.75;13.80;;;4.30;87.60;;;;;;1913507;74;21039;-53
2022/02/04 10:48:02;;;;;;;31.17;14.50;;;4.30;87.30;;;;;;1904949;74;21418;-53
2022/02/04 10:51:08;;;;;;;27.58;16.02;;;4.30;87.50;;;;;;1904144;74;21043;-54
2022/02/04 10:59:01;;;;;;;29.32;16.23;;;4.60;88.50;;;;;;1905214;75;21101;-53
2022/02/04 11:01:31;;;;;;;36.75;19.50;;;4.60;88.20;;;;;;1903663;74;21028;-54
2022/02/04 11:03:50;;;;;;;35.17;17.90;;;4.70;88.30;;;;;;1904247;74;21039;-53
2022/02/04 11:06:31;;;;;;;52.80;28.07;;;4.80;88.10;;;;;;1905207;74;20996;-54
2022/02/04 11:09:05;;;;;;;43.65;22.07;;;4.90;88.30;;;;;;1904181;74;21025;-54
2022/02/04 11:11:51;;;;;;;30.20;14.90;;;4.90;88.50;;;;;;1903137;74;21089;-54
2022/02/04 11:34:03;;;;;;;19.75;10.38;;;4.60;87.20;;;;;;1905399;75;21039;-53
2022/02/04 11:48:23;;;;;;;19.73;9.85;;;4.10;86.50;;;;;;1905390;75;21043;-54
2022/02/04 11:54:29;;;;;;;19.00;9.35;;;3.90;86.80;;;;;;1905340;75;21109;-53
2022/02/04 11:56:16;;;;;;;17.15;11.35;;;3.80;87.30;;;;;;1903209;75;21113;-53
2022/02/04 11:59:02;;;;;;;20.72;11.50;;;3.80;87.50;;;;;;1905232;75;21000;-53
2022/02/04 12:01:44;;;;;;;18.15;9.60;;;3.70;88.00;;;;;;1905372;74;21109;-54
2022/02/04 12:04:21;;;;;;;16.15;9.63;;;3.70;87.80;;;;;;1905322;75;21023;-53
2022/02/04 12:06:51;;;;;;;22.22;11.15;;;3.60;88.10;;;;;;1905226;75;21024;-54
2022/02/04 12:09:37;;;;;;;21.33;10.20;;;3.60;88.10;;;;;;1905163;75;21105;-55
2022/02/04 12:12:07;;;;;;;23.85;11.90;;;3.50;88.30;;;;;;1905237;75;21090;-54
2022/02/04 12:14:37;;;;;;;21.70;11.30;;;3.40;88.40;;;;;;1905315;75;21023;-54
2022/02/04 12:17:16;;;;;;;25.85;12.10;;;3.40;88.50;;;;;;1905179;75;20999;-54
2022/02/04 12:19:46;;;;;;;23.15;12.73;;;3.30;88.50;;;;;;1905275;74;21043;-54
2022/02/04 12:22:17;;;;;;;15.30;8.43;;;3.30;88.80;;;;;;1905229;75;21106;-53
2022/02/04 12:24:46;;;;;;;24.52;11.73;;;3.20;89.10;;;;;;1903264;75;21039;-53
2022/02/04 12:27:35;;;;;;;23.40;11.12;;;3.20;89.60;;;;;;1905305;75;21085;-54
2022/02/04 12:30:22;;;;;;;20.97;10.00;;;3.20;89.40;;;;;;1905166;74;21462;-52
2022/02/04 12:32:52;;;;;;;20.97;12.88;;;3.20;89.60;;;;;;1905184;75;21044;-52
2022/02/04 12:35:23;;;;;;;17.12;10.23;;;3.10;90.10;;;;;;1905188;75;21020;-54
2022/02/04 12:37:52;;;;;;;18.35;11.50;;;3.10;89.60;;;;;;1905241;74;21020;-54
2022/02/04 12:40:22;;;;;;;18.85;10.38;;;3.10;90.00;;;;;;1905161;75;21018;-55
2022/02/04 12:42:52;;;;;;;20.00;10.88;;;3.10;90.00;;;;;;1905359;75;21077;-53
2022/02/04 12:45:21;;;;;;;18.62;10.53;;;3.00;90.00;;;;;;1905169;75;21003;-54
2022/02/04 12:47:53;;;;;;;15.15;8.75;;;3.00;89.80;;;;;;1905242;74;21532;-54
2022/02/04 12:50:24;;;;;;;13.05;7.47;;;3.00;90.10;;;;;;1905232;75;21097;-53
2022/02/04 12:52:53;;;;;;;21.33;11.57;;;3.00;90.00;;;;;;1905365;74;21559;-53
2022/02/04 12:55:34;;;;;;;15.53;7.20;;;3.00;90.10;;;;;;1905175;75;21122;-54
2022/02/04 12:58:25;;;;;;;16.02;9.45;;;2.90;90.30;;;;;;1904445;74;21466;-54
2022/02/04 13:03:11;;;;;;;21.62;10.40;;;2.80;90.20;;;;;;1905503;75;21101;-53
2022/02/04 13:08:41;;;;;;;14.65;7.78;;;2.70;90.20;;;;;;1905482;75;21036;-55
2022/02/04 13:11:09;;;;;;;26.05;13.75;;;2.70;90.20;;;;;;1905105;74;21028;-54
2022/02/04 13:16:11;;;;;;;21.68;11.18;;;2.80;90.20;;;;;;1905160;74;21426;-53
2022/02/04 13:18:40;;;;;;;20.23;11.95;;;2.80;90.10;;;;;;1905283;74;21082;-55
2022/02/04 13:21:11;;;;;;;22.60;10.38;;;2.80;90.10;;;;;;1905183;75;21024;-54
2022/02/04 13:23:40;;;;;;;21.65;11.88;;;2.80;89.40;;;;;;1905379;75;21422;-53
2022/02/04 13:26:10;;;;;;;19.05;11.45;;;2.80;89.20;;;;;;1905298;75;21047;-54
2022/02/04 13:28:42;;;;;;;13.25;7.90;;;2.90;89.30;;;;;;1905203;75;21008;-53
2022/02/04 13:31:13;;;;;;;21.50;10.88;;;2.80;88.10;;;;;;1905269;75;21023;-53
2022/02/04 13:33:45;;;;;;;14.03;8.38;;;2.80;88.40;;;;;;1905217;75;21051;-53
2022/02/04 13:36:33;;;;;;;21.85;8.83;;;2.80;88.20;;;;;;1905100;75;21021;-53
2022/02/04 13:47:27;;;;;;;16.17;9.15;;;2.80;88.10;;;;;;1911994;74;21030;-52
2022/02/04 13:53:20;;;;;;;18.32;11.93;;;2.80;87.50;;;;;;1924593;74;21141;-53
2022/02/04 14:01:09;;;;;;;12.00;6.85;;;2.80;87.90;;;;;;1924654;74;21113;-53
2022/02/04 14:03:39;;;;;;;18.30;11.63;;;2.80;87.60;;;;;;1924088;74;21054;-53
2022/02/04 14:06:25;;;;;;;14.23;8.10;;;2.70;88.00;;;;;;1924474;74;20990;-53
2022/02/04 14:08:57;;;;;;;13.53;7.20;;;2.70;86.80;;;;;;1924579;74;21014;-52
2022/02/04 14:11:36;;;;;;;21.93;13.08;;;2.70;87.00;;;;;;1924391;74;21104;-52
2022/02/04 14:14:22;;;;;;;13.38;7.97;;;2.70;87.10;;;;;;1923845;74;21073;-53
2022/02/04 14:16:59;;;;;;;13.60;8.25;;;2.70;86.00;;;;;;1924502;74;21015;-54
2022/02/04 14:19:28;;;;;;;13.72;8.13;;;2.60;85.80;;;;;;1924664;74;21101;-53
2022/02/04 14:21:58;;;;;;;14.55;8.90;;;2.60;86.20;;;;;;1924675;74;21047;-53
2022/02/04 14:24:28;;;;;;;8.90;5.85;;;2.60;86.00;;;;;;1924547;74;21088;-53
2022/02/04 14:26:58;;;;;;;11.78;7.17;;;2.50;86.40;;;;;;1924646;74;21084;-52
2022/02/04 14:29:35;;;;;;;14.58;8.50;;;2.50;86.00;;;;;;1924577;74;21034;-52
2022/02/04 14:32:15;;;;;;;14.68;8.88;;;2.50;86.50;;;;;;1923750;74;21039;-53
2022/02/04 14:54:03;;;;;;;11.18;8.20;;;2.40;86.40;;;;;;1905472;75;21024;-53
2022/02/04 15:01:50;;;;;;;10.05;7.00;;;2.40;86.30;;;;;;1905541;75;21145;-52
2022/02/04 15:04:23;;;;;;;13.53;8.65;;;2.40;86.80;;;;;;1904617;74;21048;-53
2022/02/04 15:06:43;;;;;;;17.95;10.53;;;2.40;85.90;;;;;;1904391;74;21354;-53
2022/02/04 15:09:14;;;;;;;10.72;7.53;;;2.30;86.30;;;;;;1905330;75;21085;-54
2022/02/04 15:11:44;;;;;;;15.05;9.50;;;2.30;85.10;;;;;;1905324;75;21070;-52
2022/02/04 15:14:15;;;;;;;15.40;8.30;;;2.30;85.90;;;;;;1905183;74;21090;-52
2022/02/04 15:16:45;;;;;;;20.02;10.13;;;2.30;85.90;;;;;;1905407;75;21023;-50
2022/02/04 15:19:15;;;;;;;19.10;9.50;;;2.30;86.20;;;;;;1905308;74;21015;-52
2022/02/04 15:21:47;;;;;;;19.90;12.00;;;2.30;86.50;;;;;;1905278;75;21000;-53
2022/02/04 15:24:15;;;;;;;12.15;8.88;;;2.30;86.50;;;;;;1905282;75;21097;-52
2022/02/04 15:26:44;;;;;;;18.07;10.80;;;2.30;86.20;;;;;;1905375;74;21019;-52
2022/02/04 15:29:17;;;;;;;17.27;10.45;;;2.30;85.80;;;;;;1905265;75;21136;-51
2022/02/04 15:31:49;;;;;;;14.05;8.98;;;2.30;85.90;;;;;;1905413;74;21039;-52
2022/02/04 15:34:17;;;;;;;13.62;7.45;;;2.30;85.60;;;;;;1905177;74;21052;-53
2022/02/04 15:36:48;;;;;;;12.68;7.55;;;2.30;86.30;;;;;;1905423;74;21023;-53
2022/02/04 15:39:20;;;;;;;17.87;10.82;;;2.30;86.10;;;;;;1905363;74;21015;-53
2022/02/04 15:41:52;;;;;;;17.92;10.85;;;2.30;86.20;;;;;;1905511;75;21101;-53
2022/02/04 15:52:40;;;;;;;15.23;10.82;;;2.30;86.50;;;;;;1905459;75;21015;-54
2022/02/04 16:02:44;;;;;;;12.33;7.83;;;2.20;84.10;;;;;;1905442;75;21097;-52
2022/02/04 16:05:01;;;;;;;9.50;7.10;;;2.20;83.40;;;;;;1904511;74;21023;-51
2022/02/04 16:07:31;;;;;;;12.03;7.35;;;2.20;84.20;;;;;;1905402;75;21015;-52
2022/02/04 16:10:26;;;;;;;11.05;6.92;;;2.20;83.70;;;;;;1905361;75;21015;-50
2022/02/04 16:12:55;;;;;;;14.20;7.92;;;2.10;84.00;;;;;;1904416;74;21068;-51
2022/02/04 16:16:21;;;;;;;10.70;6.72;;;2.10;83.90;;;;;;1905258;74;21020;-52
2022/02/04 16:17:56;;;;;;;11.65;7.25;;;2.10;83.80;;;;;;1887038;75;21040;-50
2022/02/04 16:20:50;;;;;;;10.95;8.03;;;2.10;83.70;;;;;;1905302;74;21073;-51
2022/02/04 16:23:01;;;;;;;12.45;6.03;;;2.10;83.50;;;;;;1903211;75;21521;-52
2022/02/04 16:30:43;;;;;;;9.60;6.35;;;2.00;83.30;;;;;;1905283;75;21035;-52
2022/02/04 16:33:12;;;;;;;9.85;5.62;;;2.00;82.70;;;;;;1905318;75;21027;-51
2022/02/04 16:35:42;;;;;;;9.55;6.42;;;2.00;82.50;;;;;;1905320;75;21019;-53
2022/02/04 16:38:16;;;;;;;11.65;8.23;;;1.90;82.50;;;;;;1905305;74;21039;-52
2022/02/04 16:40:45;;;;;;;8.75;6.10;;;1.90;82.70;;;;;;1904978;74;21107;-51
2022/02/04 16:43:15;;;;;;;16.48;9.33;;;1.90;82.30;;;;;;1905363;75;21019;-50
2022/02/04 16:45:45;;;;;;;9.13;5.65;;;1.90;82.80;;;;;;1904554;74;21043;-52
2022/02/04 16:48:15;;;;;;;12.07;5.20;;;1.90;82.70;;;;;;1905209;75;21067;-53
2022/02/04 16:50:45;;;;;;;12.73;6.72;;;1.90;83.00;;;;;;1905182;75;21055;-51
2022/02/04 16:53:14;;;;;;;6.90;4.67;;;1.90;82.70;;;;;;1905276;75;21070;-51
2022/02/04 16:55:44;;;;;;;16.37;8.80;;;1.90;83.10;;;;;;1905202;74;21321;-51
2022/02/04 16:58:13;;;;;;;8.30;6.22;;;1.80;83.00;;;;;;1905258;75;21015;-53
2022/02/04 17:00:42;;;;;;;12.88;7.30;;;1.90;82.70;;;;;;1905242;75;21020;-51
2022/02/04 17:03:12;;;;;;;11.50;8.05;;;1.80;82.60;;;;;;1905265;75;21040;-51
2022/02/04 17:08:44;;;;;;;14.35;8.78;;;1.80;82.80;;;;;;1905393;75;21047;-50
2022/02/04 17:11:07;;;;;;;15.78;9.70;;;1.80;83.00;;;;;;1903998;74;21047;-52
2022/02/04 17:13:35;;;;;;;17.85;9.53;;;1.90;83.50;;;;;;1905416;74;21047;-51
2022/02/04 17:16:05;;;;;;;14.33;7.87;;;1.90;83.50;;;;;;1905468;75;21031;-51
2022/02/04 17:18:35;;;;;;;15.85;9.28;;;1.90;83.60;;;;;;1905380;75;21035;-49
2022/02/04 17:21:05;;;;;;;16.42;9.30;;;1.90;83.70;;;;;;1905374;74;21066;-53
2022/02/04 17:23:51;;;;;;;15.55;9.03;;;1.90;83.70;;;;;;1905379;75;21144;-52
2022/02/04 17:26:17;;;;;;;11.30;7.17;;;1.90;83.30;;;;;;1904813;74;21055;-52
2022/02/04 17:28:45;;;;;;;12.75;8.18;;;1.90;82.80;;;;;;1905026;74;21023;-52
2022/02/04 17:31:15;;;;;;;13.88;6.90;;;1.80;82.90;;;;;;1905199;75;21043;-52
2022/02/04 17:33:44;;;;;;;10.82;6.90;;;1.90;83.00;;;;;;1905318;75;21067;-53
2022/02/04 17:36:13;;;;;;;17.27;11.12;;;1.80;83.10;;;;;;1905259;75;21023;-51
2022/02/04 17:38:43;;;;;;;11.78;7.05;;;1.80;83.00;;;;;;1905202;75;21111;-52
2022/02/04 17:41:15;;;;;;;16.15;10.38;;;1.80;82.90;;;;;;1905253;75;21031;-53
2022/02/04 17:43:47;;;;;;;16.48;9.88;;;1.80;83.00;;;;;;1905259;74;21028;-53
2022/02/04 17:46:14;;;;;;;14.73;9.85;;;1.90;83.30;;;;;;1905061;74;21091;-50
2022/02/04 17:48:58;;;;;;;16.25;10.35;;;1.90;82.80;;;;;;1905132;75;21077;-50
2022/02/04 17:51:33;;;;;;;10.45;7.47;;;1.90;83.20;;;;;;1901836;74;21063;-53
2022/02/04 17:53:56;;;;;;;16.65;8.78;;;1.90;81.90;;;;;;1903675;74;21023;-51
2022/02/04 17:56:48;;;;;;;12.85;6.60;;;1.90;82.20;;;;;;1903790;74;21047;-52
2022/02/04 17:59:32;;;;;;;9.83;5.75;;;1.80;81.50;;;;;;1904047;74;21032;-52
2022/02/04 18:09:43;;;;;;;9.18;4.87;;;1.70;80.40;;;;;;1905400;75;21109;-52
2022/02/04 18:12:14;;;;;;;6.58;5.12;;;1.70;80.00;;;;;;1905299;74;21074;-54
2022/02/04 18:14:43;;;;;;;10.00;5.55;;;1.60;80.00;;;;;;1905306;75;21020;-52
2022/02/04 18:17:14;;;;;;;11.80;6.40;;;1.60;79.60;;;;;;1905330;75;21020;-50
2022/02/04 18:19:43;;;;;;;6.67;5.60;;;1.60;80.40;;;;;;1905250;75;21015;-52
2022/02/04 18:22:13;;;;;;;8.68;6.62;;;1.60;80.30;;;;;;1905449;74;21016;-50
2022/02/04 18:24:42;;;;;;;7.20;5.00;;;1.60;79.90;;;;;;1905303;74;21077;-52
2022/02/04 18:27:13;;;;;;;4.28;3.08;;;1.50;79.60;;;;;;1905354;74;21023;-52
2022/02/04 18:29:46;;;;;;;6.00;4.45;;;1.50;78.70;;;;;;1905261;74;21058;-52
2022/02/04 18:32:13;;;;;;;7.72;5.00;;;1.40;79.00;;;;;;1905284;74;21024;-53
2022/02/04 18:34:43;;;;;;;14.78;8.25;;;1.40;78.90;;;;;;1905283;75;21023;-50
2022/02/04 18:37:12;;;;;;;8.40;5.53;;;1.40;79.50;;;;;;1905498;75;21015;-51
2022/02/04 18:45:25;;;;;;;13.70;7.85;;;1.40;79.30;;;;;;1905313;75;21093;-52
2022/02/04 18:48:13;;;;;;;8.48;5.62;;;1.40;79.70;;;;;;1905148;74;21090;-52
2022/02/04 18:50:39;;;;;;;10.63;4.97;;;1.40;80.30;;;;;;1913714;74;21062;-49
2022/02/04 18:55:47;;;;;;;8.15;6.15;;;1.40;79.70;;;;;;1924875;74;21061;-52
2022/02/04 18:58:15;;;;;;;8.88;5.80;;;1.40;79.50;;;;;;1924540;74;21015;-52
2022/02/04 19:00:46;;;;;;;11.33;7.58;;;1.40;80.30;;;;;;1924963;74;21113;-50
2022/02/04 19:03:22;;;;;;;8.68;5.03;;;1.50;80.60;;;;;;1924723;74;21055;-52
2022/02/04 19:06:10;;;;;;;6.35;5.42;;;1.50;79.50;;;;;;1924360;74;21014;-52
2022/02/04 19:08:25;;;;;;;7.60;5.78;;;1.50;79.20;;;;;;1920165;74;21038;-51
2022/02/04 19:10:50;;;;;;;10.60;6.45;;;1.50;79.40;;;;;;1924063;74;21065;-52
2022/02/04 19:13:24;;;;;;;5.58;4.33;;;1.50;79.40;;;;;;1924771;74;21050;-52
2022/02/04 19:16:11;;;;;;;11.63;7.47;;;1.40;79.70;;;;;;1924586;74;21100;-51
2022/02/04 19:18:41;;;;;;;11.50;7.37;;;1.40;80.00;;;;;;1923649;74;21034;-52
2022/02/04 19:21:11;;;;;;;10.25;7.22;;;1.40;80.20;;;;;;1923882;74;21450;-52
2022/02/04 19:23:48;;;;;;;7.83;5.03;;;1.40;80.20;;;;;;1924570;74;21039;-52
2022/02/04 19:26:15;;;;;;;8.60;4.70;;;1.50;80.50;;;;;;1923778;74;21023;-52
2022/02/04 19:28:41;;;;;;;8.50;5.35;;;1.40;80.20;;;;;;1924310;74;21023;-52
2022/02/04 19:31:12;;;;;;;14.03;7.67;;;1.50;80.10;;;;;;1924402;74;21021;-51
2022/02/04 19:33:42;;;;;;;10.68;7.12;;;1.50;80.10;;;;;;1924772;74;21102;-53
2022/02/04 19:36:11;;;;;;;6.50;4.60;;;1.50;80.00;;;;;;1924814;74;21088;-52
2022/02/04 19:38:41;;;;;;;9.13;6.22;;;1.50;79.80;;;;;;1924742;74;21022;-53
2022/02/04 19:41:15;;;;;;;9.43;8.00;;;1.50;80.20;;;;;;1924703;74;21030;-52
2022/02/04 19:43:49;;;;;;;6.62;5.95;;;1.50;80.00;;;;;;1924150;74;21101;-52
2022/02/04 19:46:16;;;;;;;9.83;6.20;;;1.50;80.40;;;;;;1923163;74;21031;-53
2022/02/04 19:48:48;;;;;;;9.28;7.50;;;1.50;80.70;;;;;;1924392;74;21019;-51
2022/02/04 19:51:26;;;;;;;11.10;6.40;;;1.50;80.60;;;;;;1924349;74;21112;-53
2022/02/04 20:26:50;;;;;;;11.25;6.83;;;1.30;80.60;;;;;;1924778;74;21030;-50
2022/02/04 20:29:20;;;;;;;5.97;4.35;;;1.30;80.50;;;;;;1924536;74;21080;-52
2022/02/04 20:31:49;;;;;;;5.67;4.97;;;1.20;80.20;;;;;;1924663;74;21023;-52
2022/02/04 20:34:18;;;;;;;8.53;6.50;;;1.20;80.30;;;;;;1924732;74;21023;-53
2022/02/04 20:36:48;;;;;;;8.90;6.72;;;1.20;80.70;;;;;;1924749;74;21018;-53
2022/02/04 20:39:20;;;;;;;10.35;7.05;;;1.20;81.10;;;;;;1924614;74;21022;-51
2022/02/04 20:41:48;;;;;;;8.13;5.58;;;1.20;81.20;;;;;;1924721;74;21094;-52
2022/02/04 20:44:17;;;;;;;6.50;4.95;;;1.30;80.60;;;;;;1924610;74;21080;-51
2022/02/04 20:46:47;;;;;;;7.62;5.40;;;1.20;80.10;;;;;;1924661;74;21018;-52
2022/02/04 20:49:17;;;;;;;9.25;5.87;;;1.30;80.70;;;;;;1924679;74;21038;-52
2022/02/04 20:51:46;;;;;;;11.60;6.67;;;1.20;81.00;;;;;;1914261;74;21162;-50
2022/02/04 20:54:15;;;;;;;10.93;7.92;;;1.20;81.30;;;;;;1905474;75;21117;-51
2022/02/04 20:56:45;;;;;;;10.40;7.85;;;1.20;81.50;;;;;;1905455;75;20996;-50
2022/02/04 20:59:14;;;;;;;11.03;6.17;;;1.30;81.30;;;;;;1905313;75;21027;-53
2022/02/04 21:01:44;;;;;;;6.65;5.55;;;1.20;81.30;;;;;;1905377;75;21024;-51
2022/02/04 21:04:13;;;;;;;7.08;5.20;;;1.20;81.60;;;;;;1905443;75;21023;-51
2022/02/04 21:06:55;;;;;;;7.85;6.00;;;1.30;81.80;;;;;;1905364;75;21089;-52
2022/02/04 21:09:59;;;;;;;8.08;5.55;;;1.20;81.90;;;;;;1904815;74;21035;-52
2022/02/04 21:17:08;;;;;;;5.53;4.65;;;1.30;82.30;;;;;;1905497;75;21016;-53
2022/02/04 21:19:39;;;;;;;11.57;5.70;;;1.30;82.40;;;;;;1905287;75;21089;-53
2022/02/04 21:22:08;;;;;;;10.72;7.25;;;1.20;82.70;;;;;;1905377;74;21043;-51
2022/02/04 21:24:38;;;;;;;8.38;6.10;;;1.20;82.40;;;;;;1905337;75;21023;-52